Aérodrome :
LOGIN :

S'inscrire | Disclaimer

   EN    FR    IT 

 










Légende :    VFR   VFR Marginal   IFR   IFR Intensif   IFR Très Intensif
Visi : 
Plafond : 
>= 8 km
>= 3000ft
5 à 8 km
1000 à 3000 ft
1500m à 5 km
500 à 1000 ft
800 à 1500m
200 à 500 ft
< 800m
< 200 ft
Symboles :   Orages  Brouillard  Fortes neiges  Fortes précipitations  Vent > 20 kt
SIGMETs :   Divers  Orages  Givrage  Turbulence  Onde Orograph.  Cendres Volcan.







- Altitude de l'aérodrome : 1260 ft
- Code IATA : LDE
- Voir les cartes d'approche


LFBT - Tarbes / Ossun

DERNIER METAR :
  • 240000Z AUTO 14006KT CAVOK 12/03 Q1015 NOSIG

METARs EXPIRÉS :
  • 232330Z AUTO 16006KT CAVOK 11/04 Q1015 NOSIG
  • 232300Z AUTO 19004KT CAVOK 10/03 Q1015 NOSIG
  • 232230Z AUTO 18006KT CAVOK 10/03 Q1015 NOSIG
  • 232200Z AUTO 17005KT CAVOK 09/04 Q1015 NOSIG
  • 232130Z AUTO 15005KT CAVOK 10/04 Q1015 NOSIG

TAF TAF LFBT
Valide du 24 à 00h jusqu'au 25 à 00h UTC


232300Z 2400/2424 18005KT CAVOK
BECMG 2403/2405 BKN080
PROB30
TEMPO 2405/2411 BKN070TCU
Pas de NOTAMs connus pour ce terrain.



MET'MAP, la Météo Aéronautique d'un coup d'oeil ! - Copyright ORBIFLY Décembre 2007 - Disclaimer

ORBIFLY MET'MAP TEAM :

Programmation & Développement : Alexandra Zaïnal
Conception & Développement : Baudouin d'Aumeries
Co-Programmation & Développement : Marc-Olivier Méhu
Soutien technique & logistique : Manuel Goepfert

Contact : metmap@orbifly.com




SOURCES & CREDITS :

   NOAA